Date,TemperatureHighF,TemperatureAvgF,TemperatureLowF,DewpointHighF,DewpointAvgF,DewpointLowF,HumidityHigh,HumidityAvg,HumidityLow,PressureMaxIn,PressureMinIn,WindSpeedMaxMPH,WindSpeedAvgMPH,GustSpeedMaxMPH,PrecipitationSumIn
2013-1-7,59.7,52.2,45.5,46.3,40.9,37.4,73,66,47,29.86,29.82,6,3,20,0.00
2013-1-8,68.4,53.4,43.2,49.0,41.8,34.2,83,66,41,30.13,29.83,8,3,13,0.00
2013-1-9,66.6,55.2,45.9,53.9,46.7,38.2,88,74,48,30.15,30.04,8,3,11,0.00
2013-1-10,56.8,54.2,49.6,50.9,39.9,24.9,89,60,36,30.22,29.96,23,10,36,0.00
2013-1-11,55.9,47.7,36.0,33.4,28.7,20.5,73,49,31,30.22,30.09,12,6,24,0.00
2013-1-12,57.0,46.2,35.8,34.6,29.3,24.5,68,53,32,30.18,30.09,11,5,15,0.00
2013-1-13,61.5,46.2,36.5,37.5,28.4,23.2,71,52,24,30.18,30.08,8,4,14,0.00
2013-1-14,59.7,47.4,37.4,26.6,14.0,-2.3,61,29,10,30.36,30.14,13,5,22,0.00
2013-1-15,57.9,47.5,36.1,34.6,23.6,11.8,54,40,22,30.48,30.34,9,5,20,0.00
2013-1-16,63.3,51.5,40.1,47.8,34.9,26.6,71,54,33,30.38,30.14,8,3,14,0.00
2013-1-17,72.7,57.0,44.4,48.8,31.7,12.1,74,43,10,30.18,30.05,12,4,18,0.00
2013-1-18,75.0,58.8,47.7,48.8,32.0,16.9,73,40,13,30.14,30.06,8,3,13,0.00
2013-1-19,71.8,58.3,46.9,45.7,29.3,15.4,52,35,12,30.20,30.08,8,3,14,0.00
2013-1-20,74.5,58.2,45.1,44.5,27.8,17.8,55,33,13,30.15,30.00,9,3,13,0.00
2013-1-21,71.4,56.9,45.1,53.5,36.2,23.1,68,47,24,30.11,30.00,7,2,13,0.00
2013-1-22,77.2,58.4,45.7,48.5,29.8,15.5,69,36,10,30.10,30.02,10,3,15,0.00
2013-1-23,72.1,62.2,55.8,52.2,39.5,27.6,78,45,25,30.16,30.01,11,2,14,0.00
2013-1-24,77.4,61.6,55.2,56.0,52.6,47.2,88,73,43,30.21,30.11,10,3,16,0.11
2013-1-25,67.5,61.4,59.0,61.1,58.1,55.3,95,89,79,30.13,29.96,8,2,14,0.27
2013-1-26,67.1,59.1,55.9,62.5,57.4,55.1,97,94,81,30.04,29.91,7,1,10,0.04
2013-1-27,64.4,56.3,50.9,55.1,49.9,45.3,98,80,61,30.07,30.00,8,4,13,0.02
2013-1-28,59.9,52.0,43.5,46.4,40.1,33.4,88,66,37,30.21,30.03,14,5,25,0.00
2013-1-29,64.0,51.3,40.8,45.7,40.3,34.5,79,67,47,30.26,30.19,8,3,17,0.00
2013-1-30,65.5,54.0,43.3,49.1,43.2,38.7,84,68,45,30.37,30.23,10,4,14,0.00
2013-1-31,68.2,57.1,46.0,50.4,44.5,39.2,78,64,42,30.27,30.09,9,4,17,0.00
2013-2-1,72.3,58.4,48.9,55.4,47.7,39.7,89,68,38,30.19,30.11,11,2,18,0.00
2013-2-2,66.9,60.0,53.4,55.8,49.4,44.3,80,68,50,30.21,30.11,9,3,17,0.00
2013-2-3,66.9,60.8,51.6,56.2,51.7,46.0,87,72,55,30.15,30.03,9,3,17,0.00
2013-2-4,62.8,53.3,46.9,53.2,49.1,42.8,95,86,69,30.13,30.01,7,2,11,0.00
2013-2-5,58.1,53.9,49.6,52.1,49.8,47.9,95,86,78,30.14,30.02,9,2,15,0.00
2013-2-6,65.8,57.2,49.3,50.7,48.3,45.6,87,73,56,30.14,30.02,7,2,11,0.00
2013-2-7,64.2,53.5,44.6,52.3,46.7,41.6,90,78,63,30.16,30.04,8,4,13,0.00
2013-2-8,57.2,51.4,43.7,49.0,42.2,38.9,88,71,56,30.04,29.93,18,7,32,0.21
2013-2-9,63.7,49.8,38.7,45.8,40.5,36.3,92,72,45,30.13,29.96,8,3,14,0.00
2013-2-10,64.9,51.4,42.3,45.9,41.4,35.2,84,70,47,30.14,30.05,9,4,17,0.00
2013-2-11,61.0,51.1,41.0,48.9,42.8,36.7,86,74,49,30.27,30.08,12,5,21,0.00
2013-2-12,64.2,50.8,39.9,48.8,38.5,29.2,75,63,36,30.37,30.26,8,4,14,0.00
2013-2-13,63.9,51.6,40.5,52.0,42.3,33.2,81,71,48,30.29,30.16,9,4,14,0.00
2013-2-14,46.4,45.1,43.9,40.9,39.5,38.1,82,81,79,30.20,30.15,4,4,9,0.00
2013-2-15,76.6,62.1,48.4,50.8,36.8,25.0,81,44,16,30.19,30.12,8,4,12,0.02
2013-2-16,77.9,64.3,52.7,48.0,27.4,16.2,52,27,10,30.15,30.00,9,3,12,0.00
2013-2-17,67.6,57.3,45.7,52.5,46.0,28.7,83,67,46,30.05,29.96,6,3,11,0.00
2013-2-18,66.6,57.1,53.1,49.2,46.6,43.5,79,69,51,30.09,29.99,8,3,12,0.00
2013-2-19,59.7,53.3,47.7,51.8,44.5,40.8,89,73,62,30.02,29.74,17,6,30,0.14
2013-2-20,60.1,52.9,46.8,43.2,37.8,29.4,72,57,40,30.03,29.73,24,8,42,0.01
2013-2-21,65.8,54.0,45.5,48.0,43.6,39.2,83,68,47,30.12,30.00,8,3,15,0.00
2013-2-22,66.0,52.6,40.6,50.3,42.8,35.3,85,70,52,30.23,30.12,9,4,15,0.00
2013-2-23,65.8,53.1,41.5,50.6,43.3,34.5,85,70,48,30.19,29.96,8,3,12,0.00
2013-2-24,71.8,55.4,43.7,50.1,40.9,9.6,90,64,10,30.23,30.00,9,4,25,0.00
2013-2-25,64.8,52.8,41.0,51.1,35.9,22.3,81,54,23,30.24,30.10,10,4,14,0.00
2013-2-26,64.0,53.0,39.9,51.2,41.7,30.5,82,66,52,30.13,30.01,9,4,15,0.00
2013-2-27,70.2,58.7,48.2,52.9,35.1,24.2,70,42,27,30.29,30.13,8,4,98,0.00
2013-2-28,54.0,48.8,46.2,30.9,26.8,23.8,49,42,35,30.31,30.25,8,5,15,0.00
2013-3-1,80.2,65.9,51.3,42.8,28.9,16.9,44,28,10,30.31,30.15,9,4,13,0.00
2013-3-2,80.1,64.8,54.5,51.4,35.4,20.8,78,38,11,30.21,30.09,8,3,14,0.00
2013-3-3,69.4,58.9,52.0,56.4,48.9,34.4,89,70,49,30.13,30.02,10,2,16,0.00
2013-3-4,65.5,59.4,53.8,53.4,51.7,48.3,86,76,63,30.13,30.05,5,3,10,0.00
2013-3-5,62.4,56.8,54.1,53.7,51.0,48.6,86,81,72,30.16,30.07,8,3,13,0.00
2013-3-6,64.4,57.7,53.1,50.6,46.8,44.0,82,68,53,30.19,30.04,8,3,15,0.00
2013-3-7,61.9,55.8,52.2,53.0,50.2,45.0,93,82,69,30.04,29.88,6,2,11,0.11
2013-3-8,61.2,54.5,48.7,50.6,45.9,40.9,91,73,53,30.07,29.80,21,5,36,0.39
2013-3-9,67.6,57.6,49.8,48.5,46.1,43.2,82,66,48,30.24,30.06,14,4,28,0.00
2013-3-10,66.9,56.2,45.0,53.1,44.6,36.2,86,67,37,30.28,30.16,11,4,20,0.00
2013-3-11,67.6,56.2,45.0,56.1,47.0,35.5,95,72,48,30.21,30.07,8,3,14,0.00
2013-3-12,64.2,54.8,45.7,54.6,51.1,43.7,97,88,69,30.11,30.01,9,3,15,0.00
2013-3-13,61.3,54.3,47.7,54.8,51.9,46.4,97,92,78,30.14,30.05,7,2,13,0.00
2013-3-14,52.9,52.1,51.1,51.9,51.3,50.3,97,97,97,30.11,30.10,2,1,8,0.00
2013-3-15,63.3,55.2,52.2,55.5,52.5,50.5,97,91,74,30.07,29.98,4,1,8,0.00
2013-3-16,65.5,56.8,52.3,53.4,51.7,50.6,95,84,64,30.00,29.93,5,2,8,0.00
2013-3-17,69.3,59.3,54.9,54.3,52.2,50.6,89,78,59,30.03,29.95,4,3,8,0.00
2013-3-18,66.7,59.3,55.0,53.3,51.7,50.5,87,77,60,30.11,30.00,5,2,10,0.00
2013-3-19,67.1,58.9,53.1,55.0,52.6,49.3,90,80,63,30.16,30.07,8,3,13,0.00
2013-3-20,64.9,58.3,52.5,56.1,53.5,50.2,93,84,66,30.12,30.00,9,3,19,0.00
2013-3-21,72.9,60.8,52.7,58.5,54.1,49.3,91,79,57,30.00,29.84,5,2,10,0.00
2013-3-22,67.5,61.1,55.6,55.6,54.1,51.5,89,78,63,29.94,29.83,7,3,11,0.00
2013-3-23,68.4,59.1,51.3,55.1,51.7,47.2,87,77,61,30.05,29.93,6,3,10,0.00
2013-3-24,67.5,59.2,52.7,56.7,53.4,48.3,92,82,67,30.04,29.91,8,3,14,0.00
2013-3-25,71.8,60.0,53.4,58.5,54.5,50.2,91,83,63,30.00,29.92,6,2,9,0.00
2013-3-26,70.5,60.4,54.3,56.3,53.9,50.7,89,80,58,30.00,29.93,5,2,10,0.00
2013-3-27,67.1,60.3,56.7,54.5,52.8,50.9,86,76,63,30.08,29.95,7,2,11,0.00
2013-3-28,66.2,60.0,55.4,56.4,54.1,51.3,93,81,70,30.10,30.02,10,4,17,0.00
2013-3-29,63.5,59.2,57.4,56.4,55.2,54.5,93,87,74,30.14,30.07,6,3,11,0.00
2013-3-30,65.3,59.9,56.5,57.2,55.2,53.4,94,85,72,30.17,30.08,8,3,13,0.00
2013-3-31,71.2,60.6,53.6,59.0,54.9,50.2,93,82,65,30.16,30.09,8,4,14,0.00
2013-4-1,66.9,60.4,56.7,55.6,53.4,49.6,89,78,64,30.20,30.11,11,4,22,0.00
2013-4-2,68.0,60.8,55.2,55.8,54.0,52.0,89,79,61,30.13,30.02,7,2,10,0.00
2013-4-3,68.9,60.0,54.3,57.9,54.5,50.8,89,82,68,30.12,30.03,10,2,14,0.00
2013-4-4,66.9,60.9,57.4,57.2,55.5,53.5,91,83,70,30.14,30.04,13,4,20,0.00
2013-4-5,68.7,61.4,57.9,59.4,56.5,54.5,94,84,68,30.13,30.03,6,2,11,0.00
2013-4-6,71.4,62.9,58.5,59.1,56.5,54.3,90,80,63,30.11,29.99,5,2,11,0.00
2013-4-7,71.4,61.7,52.5,58.0,54.4,49.1,90,78,60,30.00,29.84,6,3,10,0.00
2013-4-8,64.2,59.8,54.5,56.5,51.0,45.4,89,73,58,29.85,29.72,20,8,35,0.00
2013-4-9,67.5,55.2,48.0,55.7,47.7,42.5,86,76,59,30.08,29.84,8,4,11,0.00
2013-4-27,68.9,61.9,55.9,59.6,57.0,52.2,95,84,72,30.16,29.99,11,3,19,0.00
2013-4-28,66.0,61.1,58.8,59.1,57.5,56.5,95,88,77,30.03,29.88,5,2,8,0.00
2013-4-29,72.7,62.7,59.0,59.8,57.3,55.2,95,83,62,29.91,29.79,7,3,10,0.00
2013-4-30,70.9,62.4,59.7,59.4,56.4,54.7,88,81,65,29.90,29.83,7,3,11,0.00
2013-5-1,70.0,64.5,60.1,60.5,58.6,56.8,91,82,68,30.09,29.89,8,3,12,0.00
2013-5-2,76.1,65.9,59.7,63.9,59.4,56.3,92,80,57,30.11,29.95,11,4,20,0.00
2013-5-3,86.5,70.1,56.3,66.5,56.8,36.6,94,67,17,30.00,29.77,7,3,14,0.00
2013-5-4,68.9,63.5,60.4,61.4,58.5,54.9,94,84,72,29.86,29.76,14,6,21,0.00
2013-5-5,67.6,62.9,61.0,58.7,57.3,55.9,88,82,72,29.95,29.83,10,4,14,0.00
2013-5-6,70.9,63.9,59.9,62.7,59.9,57.3,99,87,67,30.02,29.90,15,4,21,0.17
2013-5-7,74.8,65.7,60.1,62.5,58.4,53.9,94,78,54,30.08,29.98,7,3,11,0.00
2013-5-8,70.5,64.7,59.4,60.8,58.4,56.4,91,80,64,30.11,30.06,8,4,16,0.01
2013-5-9,71.4,64.3,55.6,61.2,58.2,53.0,93,81,69,30.10,30.03,8,3,13,0.00
2013-5-10,62.4,60.2,59.0,59.0,57.4,56.6,92,90,88,30.08,30.06,6,3,11,0.00